createdAt,value
2023-01-08T00:01:53.037Z,0.90
2023-01-08T00:04:22.192Z,0.80
2023-01-08T00:06:53.839Z,1.27
2023-01-08T00:09:21.805Z,0.90
2023-01-08T00:11:50.178Z,1.20
2023-01-08T00:14:18.350Z,1.00
2023-01-08T00:16:49.353Z,1.10
2023-01-08T00:19:20.601Z,1.20
2023-01-08T00:21:50.412Z,1.30
2023-01-08T00:24:23.233Z,1.20
2023-01-08T00:26:51.260Z,1.30
2023-01-08T00:29:20.853Z,1.20
2023-01-08T00:31:51.439Z,1.07
2023-01-08T00:34:19.782Z,1.60
2023-01-08T00:36:49.775Z,1.03
2023-01-08T00:39:20.332Z,1.00
2023-01-08T00:41:49.860Z,1.37
2023-01-08T00:44:19.021Z,1.30
2023-01-08T00:46:50.161Z,1.43
2023-01-08T00:49:18.825Z,1.07
2023-01-08T00:51:48.952Z,1.30
2023-01-08T00:54:17.622Z,1.43
2023-01-08T00:56:48.094Z,1.10
2023-01-08T00:59:16.418Z,1.40
2023-01-08T01:01:46.572Z,1.30
2023-01-08T01:04:15.572Z,1.00
2023-01-08T01:06:44.546Z,1.17
2023-01-08T01:09:14.473Z,1.10
2023-01-08T01:11:43.757Z,1.30
2023-01-08T01:14:15.862Z,1.47
2023-01-08T01:16:44.901Z,1.20
2023-01-08T01:19:13.483Z,1.07
2023-01-08T01:21:42.779Z,1.40
2023-01-08T01:24:17.327Z,1.00
2023-01-08T01:26:45.579Z,1.00
2023-01-08T01:29:16.663Z,0.83
2023-01-08T01:31:45.308Z,0.97
2023-01-08T01:34:13.393Z,1.17
2023-01-08T01:36:44.449Z,0.80
2023-01-08T01:39:14.386Z,1.07
2023-01-08T01:41:44.409Z,0.80
2023-01-08T01:44:43.421Z,1.07
2023-01-08T01:47:21.462Z,0.83
2023-01-08T01:49:57.004Z,0.90
2023-01-08T01:52:28.270Z,0.90
2023-01-08T01:54:56.801Z,0.87
2023-01-08T01:57:27.566Z,0.80
2023-01-08T02:00:00.378Z,0.97
2023-01-08T02:02:28.654Z,1.00
2023-01-08T02:04:57.817Z,0.73
2023-01-08T02:07:38.931Z,0.97
2023-01-08T02:10:12.436Z,0.70
2023-01-08T02:12:47.792Z,0.70
2023-01-08T02:15:25.507Z,0.67
2023-01-08T02:17:59.477Z,0.90
2023-01-08T02:20:35.210Z,0.80
2023-01-08T02:23:15.708Z,1.00
2023-01-08T02:26:20.358Z,0.70
2023-01-08T02:28:55.798Z,0.97
2023-01-08T02:31:26.880Z,0.90
2023-01-08T02:33:56.132Z,0.80
2023-01-08T02:36:34.752Z,0.67
2023-01-08T02:39:24.780Z,0.80
2023-01-08T02:42:12.313Z,1.00
2023-01-08T02:45:07.072Z,1.20
2023-01-08T02:47:42.564Z,0.53
2023-01-08T02:50:20.352Z,0.80
2023-01-08T02:52:59.868Z,0.70
2023-01-08T02:55:30.047Z,0.63
2023-01-08T02:58:01.505Z,1.20
2023-01-08T03:00:32.636Z,0.67
2023-01-08T03:03:10.730Z,0.60
2023-01-08T03:05:42.223Z,0.70
2023-01-08T03:08:11.492Z,0.67
2023-01-08T03:10:44.068Z,0.77
2023-01-08T03:13:18.247Z,1.10
2023-01-08T03:15:55.568Z,0.90
2023-01-08T03:18:30.597Z,0.90
2023-01-08T03:21:01.679Z,0.77
2023-01-08T03:23:37.150Z,0.83
2023-01-08T03:26:06.651Z,0.80
2023-01-08T03:28:40.714Z,0.70
2023-01-08T03:31:11.542Z,0.77
2023-01-08T03:33:40.159Z,1.10
2023-01-08T03:36:10.878Z,0.70
2023-01-08T03:38:47.999Z,1.30
2023-01-08T03:41:22.312Z,0.77
2023-01-08T03:43:51.380Z,0.93
2023-01-08T03:46:27.933Z,0.90
2023-01-08T03:48:57.622Z,1.00
2023-01-08T03:51:26.095Z,1.07
2023-01-08T03:53:58.503Z,0.70
2023-01-08T03:56:26.313Z,0.97
2023-01-08T03:58:54.281Z,0.80
2023-01-08T04:01:23.393Z,0.70
2023-01-08T04:03:51.158Z,1.00
2023-01-08T04:06:18.847Z,0.87
2023-01-08T04:08:48.443Z,0.77
2023-01-08T04:11:16.267Z,0.77
2023-01-08T04:13:44.032Z,0.70
2023-01-08T04:16:11.928Z,0.77
2023-01-08T04:18:41.089Z,1.00
2023-01-08T04:21:08.918Z,0.70
2023-01-08T04:23:36.718Z,0.90
2023-01-08T04:26:05.704Z,0.87
2023-01-08T04:28:33.494Z,0.90
2023-01-08T04:31:01.261Z,0.87
2023-01-08T04:33:29.057Z,0.70
2023-01-08T04:35:58.179Z,0.80
2023-01-08T04:38:25.949Z,0.70
2023-01-08T04:40:57.905Z,1.00
2023-01-08T04:43:25.662Z,1.10
2023-01-08T04:45:53.648Z,1.13
2023-01-08T04:48:21.373Z,0.67
2023-01-08T04:50:49.150Z,0.70
2023-01-08T04:53:18.490Z,0.90
2023-01-08T04:55:46.222Z,1.13
2023-01-08T04:58:14.115Z,0.90
2023-01-08T05:00:42.235Z,1.40
2023-01-08T05:03:10.149Z,1.37
2023-01-08T05:05:39.135Z,1.43
2023-01-08T05:08:07.063Z,1.07
2023-01-08T05:10:36.168Z,0.90
2023-01-08T05:13:04.024Z,1.40
2023-01-08T05:15:31.880Z,1.10
2023-01-08T05:18:00.542Z,0.83
2023-01-08T05:20:29.041Z,1.10
2023-01-08T05:22:58.473Z,1.10
2023-01-08T05:25:26.516Z,1.23
2023-01-08T05:27:55.718Z,0.87
2023-01-08T05:30:23.564Z,0.90
2023-01-08T05:32:51.445Z,1.37
2023-01-08T05:35:19.308Z,1.10
2023-01-08T05:37:47.043Z,0.97
2023-01-08T05:40:14.833Z,0.80
2023-01-08T05:42:42.695Z,0.70
2023-01-08T05:45:12.251Z,1.13
2023-01-08T05:47:39.995Z,1.03
2023-01-08T05:50:08.362Z,0.93
2023-01-08T05:52:36.135Z,1.10
2023-01-08T05:55:04.083Z,1.10
2023-01-08T05:57:31.873Z,0.87
2023-01-08T05:59:59.659Z,1.10
2023-01-08T06:02:29.003Z,1.20
2023-01-08T06:04:56.802Z,1.03
2023-01-08T06:07:24.501Z,1.13
2023-01-08T06:09:52.630Z,1.27
2023-01-08T06:12:20.447Z,1.17
2023-01-08T06:14:48.224Z,1.10
2023-01-08T06:17:16.410Z,1.13
2023-01-08T06:19:47.313Z,1.30
2023-01-08T06:22:15.183Z,1.07
2023-01-08T06:24:42.953Z,1.20
2023-01-08T06:27:10.695Z,1.30
2023-01-08T06:29:38.468Z,1.20
2023-01-08T06:32:06.544Z,0.93
2023-01-08T06:34:34.344Z,0.90
2023-01-08T06:37:03.458Z,0.90
2023-01-08T06:39:31.168Z,0.80
2023-01-08T06:41:58.969Z,1.10
2023-01-08T06:44:26.839Z,1.10
2023-01-08T06:46:55.173Z,1.03
2023-01-08T06:49:23.660Z,0.83
2023-01-08T06:51:51.432Z,1.37
2023-01-08T06:54:20.816Z,1.30
2023-01-08T06:56:54.084Z,1.30
2023-01-08T06:59:22.594Z,0.90
2023-01-08T07:01:50.921Z,1.27
2023-01-08T07:04:18.995Z,1.27
2023-01-08T07:06:46.791Z,1.00
2023-01-08T07:09:15.441Z,0.90
2023-01-08T07:11:44.611Z,0.70
2023-01-08T07:14:12.666Z,1.30
2023-01-08T07:16:40.479Z,1.03
2023-01-08T07:19:08.163Z,0.70
2023-01-08T07:21:35.898Z,1.03
2023-01-08T07:24:04.536Z,1.13
2023-01-08T07:26:32.368Z,1.00
2023-01-08T07:29:01.540Z,0.77
2023-01-08T07:31:29.573Z,1.13
2023-01-08T07:33:57.335Z,1.00
2023-01-08T07:36:25.259Z,1.17
2023-01-08T07:38:53.257Z,1.13
2023-01-08T07:41:21.324Z,0.90
2023-01-08T07:43:49.272Z,1.00
2023-01-08T07:46:18.489Z,1.00
2023-01-08T07:48:46.265Z,0.93
2023-01-08T07:51:14.034Z,1.00
2023-01-08T07:53:41.849Z,0.70
2023-01-08T07:56:11.659Z,1.30
2023-01-08T07:58:40.012Z,0.90
2023-01-08T08:01:11.680Z,1.33
2023-01-08T08:03:43.191Z,1.17
2023-01-08T08:06:11.442Z,0.90
2023-01-08T08:08:40.715Z,1.13
2023-01-08T08:11:09.879Z,1.20
2023-01-08T08:13:42.475Z,1.03
2023-01-08T08:16:10.374Z,1.00
2023-01-08T08:18:38.580Z,1.17
2023-01-08T08:21:07.716Z,0.90
2023-01-08T08:23:36.767Z,1.00
2023-01-08T08:26:05.616Z,1.30
2023-01-08T08:28:33.360Z,1.00
2023-01-08T08:31:01.133Z,0.87
2023-01-08T08:33:28.907Z,1.10
2023-01-08T08:35:56.640Z,0.80
2023-01-08T08:38:26.385Z,1.10
2023-01-08T08:40:54.529Z,1.13
2023-01-08T08:43:22.554Z,1.30
2023-01-08T08:45:50.355Z,1.10
2023-01-08T08:48:18.219Z,0.93
2023-01-08T08:50:45.948Z,1.30
2023-01-08T08:53:13.713Z,1.20
2023-01-08T08:55:42.798Z,1.07
2023-01-08T08:58:12.044Z,1.00
2023-01-08T09:00:41.181Z,1.20
2023-01-08T09:03:14.369Z,1.10
2023-01-08T09:05:43.090Z,1.10
2023-01-08T09:08:11.345Z,0.90
2023-01-08T09:10:39.991Z,0.80
2023-01-08T09:13:09.154Z,0.90
2023-01-08T09:15:37.458Z,1.20
2023-01-08T09:18:05.819Z,1.03
2023-01-08T09:20:33.625Z,0.80
2023-01-08T09:23:03.101Z,1.00
2023-01-08T09:25:31.763Z,1.07
2023-01-08T09:28:00.744Z,1.00
2023-01-08T09:30:30.312Z,0.83
2023-01-08T09:33:01.470Z,0.90
2023-01-08T09:35:30.545Z,1.20
2023-01-08T09:37:58.311Z,1.20
2023-01-08T09:40:29.576Z,0.90
2023-01-08T09:43:01.465Z,1.17
2023-01-08T09:45:32.904Z,0.90
2023-01-08T09:48:03.107Z,0.80
2023-01-08T09:50:32.941Z,1.30
2023-01-08T09:53:01.581Z,1.00
2023-01-08T09:55:33.542Z,1.10
2023-01-08T09:58:03.293Z,1.50
2023-01-08T10:00:35.156Z,1.10
2023-01-08T10:03:03.449Z,0.93
2023-01-08T10:05:31.852Z,1.20
2023-01-08T10:07:59.777Z,1.43
2023-01-08T10:10:30.867Z,0.90
2023-01-08T10:12:59.544Z,1.13
2023-01-08T10:15:27.514Z,1.00
2023-01-08T10:18:03.414Z,1.40
2023-01-08T10:20:31.956Z,1.10
2023-01-08T10:23:11.384Z,1.33
2023-01-08T10:25:53.869Z,1.13
2023-01-08T10:28:23.758Z,0.87
2023-01-08T10:30:53.067Z,0.87
2023-01-08T10:33:26.027Z,1.27
2023-01-08T10:35:59.172Z,0.70
2023-01-08T10:38:33.212Z,0.90
2023-01-08T10:41:04.453Z,0.70
2023-01-08T10:43:35.979Z,1.20
2023-01-08T10:46:05.690Z,0.90
2023-01-08T10:48:38.167Z,0.80
2023-01-08T10:51:07.747Z,0.93
2023-01-08T10:53:35.674Z,0.90
2023-01-08T10:56:05.679Z,1.23
2023-01-08T10:58:42.815Z,1.13
2023-01-08T11:01:12.269Z,0.90
2023-01-08T11:03:42.002Z,0.80
2023-01-08T11:06:14.745Z,0.83
2023-01-08T11:08:51.790Z,1.30
2023-01-08T11:11:20.018Z,1.00
2023-01-08T11:13:59.190Z,0.97
2023-01-08T11:16:35.481Z,1.40
2023-01-08T11:19:06.330Z,1.00
2023-01-08T11:21:36.268Z,1.23
2023-01-08T11:24:13.016Z,1.10
2023-01-08T11:26:44.544Z,0.67
2023-01-08T11:29:16.991Z,0.90
2023-01-08T11:31:51.065Z,0.70
2023-01-08T11:34:28.247Z,0.97
2023-01-08T11:37:03.829Z,0.90
2023-01-08T11:39:39.194Z,0.97
2023-01-08T11:42:20.965Z,0.97
2023-01-08T11:45:01.191Z,0.90
2023-01-08T11:47:52.782Z,1.10
2023-01-08T11:50:28.735Z,1.10
2023-01-08T11:53:11.155Z,0.90
2023-01-08T11:55:53.974Z,0.87
2023-01-08T11:58:33.536Z,1.10
2023-01-08T12:01:16.247Z,0.80
2023-01-08T12:03:48.120Z,0.80
2023-01-08T12:06:29.392Z,0.90
2023-01-08T12:09:10.488Z,0.80
2023-01-08T12:11:43.531Z,1.00
2023-01-08T12:14:36.690Z,0.50
2023-01-08T12:17:19.550Z,1.53
2023-01-08T12:20:00.702Z,0.80
2023-01-08T12:22:43.201Z,0.60
2023-01-08T12:25:31.555Z,0.63
2023-01-08T12:28:08.653Z,1.00
2023-01-08T12:30:48.053Z,0.73
2023-01-08T12:33:23.890Z,0.63
2023-01-08T12:35:56.278Z,0.97
2023-01-08T12:38:30.107Z,0.80
2023-01-08T12:41:01.671Z,0.87
2023-01-08T12:43:34.237Z,0.70
2023-01-08T12:46:04.083Z,0.83
2023-01-08T12:48:35.190Z,0.83
2023-01-08T12:51:08.908Z,0.70
2023-01-08T12:53:45.162Z,0.60
2023-01-08T12:56:22.118Z,0.70
2023-01-08T12:59:12.370Z,0.80
2023-01-08T13:01:48.671Z,0.73
2023-01-08T13:04:17.101Z,0.80
2023-01-08T13:06:53.057Z,1.23
2023-01-08T13:09:27.778Z,0.70
2023-01-08T13:11:58.413Z,0.83
2023-01-08T13:14:27.531Z,0.73
2023-01-08T13:17:04.905Z,0.90
2023-01-08T13:19:40.778Z,1.10
2023-01-08T13:22:24.296Z,0.90
2023-01-08T13:24:53.710Z,0.70
2023-01-08T13:27:29.811Z,0.90
2023-01-08T13:29:58.639Z,0.90
2023-01-08T13:32:43.895Z,1.00
2023-01-08T13:35:26.333Z,1.30
2023-01-08T13:38:13.491Z,0.70
2023-01-08T13:40:56.615Z,0.63
2023-01-08T13:43:29.832Z,0.83
2023-01-08T13:46:09.767Z,1.10
2023-01-08T13:48:39.553Z,0.90
2023-01-08T13:51:08.109Z,1.00
2023-01-08T13:53:36.047Z,0.80
2023-01-08T13:56:08.903Z,1.20
2023-01-08T13:58:39.244Z,1.00
2023-01-08T14:01:08.371Z,0.90
2023-01-08T14:03:38.679Z,1.03
2023-01-08T14:06:08.149Z,1.40
2023-01-08T14:08:36.033Z,1.20
2023-01-08T14:11:06.158Z,1.03
2023-01-08T14:13:35.770Z,1.80
2023-01-08T14:16:06.502Z,1.10
2023-01-08T14:18:34.468Z,0.80
2023-01-08T14:21:03.944Z,1.13
2023-01-08T14:23:35.788Z,1.00
2023-01-08T14:26:08.613Z,1.30
2023-01-08T14:28:36.902Z,1.57
2023-01-08T14:31:04.700Z,1.10
2023-01-08T14:33:35.552Z,1.03
2023-01-08T14:36:05.712Z,1.10
2023-01-08T14:38:33.517Z,2.40
2023-01-08T14:41:04.850Z,0.90
2023-01-08T14:43:39.986Z,1.07
2023-01-08T14:46:16.338Z,1.50
2023-01-08T14:48:46.143Z,0.90
2023-01-08T14:51:16.757Z,1.10
2023-01-08T14:53:47.607Z,1.10
2023-01-08T14:56:18.591Z,1.17
2023-01-08T14:58:48.133Z,1.00
2023-01-08T15:01:18.293Z,1.10
2023-01-08T15:03:48.108Z,1.00
2023-01-08T15:06:25.332Z,1.07
2023-01-08T15:08:53.143Z,1.20
2023-01-08T15:11:25.436Z,1.00
2023-01-08T15:13:57.332Z,0.80
2023-01-08T15:16:30.622Z,0.93
2023-01-08T15:19:05.349Z,0.70
2023-01-08T15:21:33.618Z,1.20
2023-01-08T15:24:03.336Z,1.37
2023-01-08T15:26:31.562Z,1.03
2023-01-08T15:29:02.896Z,1.77
2023-01-08T15:31:33.088Z,1.27
2023-01-08T15:34:01.580Z,1.40
2023-01-08T15:36:29.313Z,1.40
2023-01-08T15:38:57.073Z,1.00
2023-01-08T15:41:45.207Z,1.10
2023-01-08T15:44:14.348Z,0.80
2023-01-08T15:46:42.177Z,0.70
2023-01-08T15:49:10.683Z,1.07
2023-01-08T15:51:43.077Z,1.07
2023-01-08T15:54:12.746Z,0.83
2023-01-08T15:56:41.089Z,0.97
2023-01-08T15:59:09.393Z,1.30
2023-01-08T16:01:39.141Z,1.17
2023-01-08T16:04:06.989Z,0.87
2023-01-08T16:06:36.194Z,1.10
2023-01-08T16:09:04.150Z,1.23
2023-01-08T16:11:31.991Z,1.10
2023-01-08T16:13:59.921Z,1.20
2023-01-08T16:16:27.824Z,1.40
2023-01-08T16:18:57.094Z,1.00
2023-01-08T16:21:24.964Z,0.77
2023-01-08T16:23:53.373Z,1.50
2023-01-08T16:26:21.323Z,2.07
2023-01-08T16:28:49.088Z,2.40
2023-01-08T16:31:17.476Z,1.70
2023-01-08T16:33:45.202Z,1.10
2023-01-08T16:36:14.311Z,1.10
2023-01-08T16:38:42.015Z,1.67
2023-01-08T16:41:09.990Z,1.43
2023-01-08T16:43:41.779Z,1.63
2023-01-08T16:46:13.746Z,1.70
2023-01-08T16:48:42.189Z,1.40
2023-01-08T16:51:10.224Z,1.23
2023-01-08T16:53:39.649Z,1.27
2023-01-08T16:56:08.477Z,1.30
2023-01-08T16:58:36.844Z,0.97
2023-01-08T17:01:09.140Z,1.20
2023-01-08T17:03:37.513Z,1.30
2023-01-08T17:06:05.981Z,1.20
2023-01-08T17:08:33.870Z,0.97
2023-01-08T17:11:08.200Z,1.03
2023-01-08T17:13:36.073Z,1.17
2023-01-08T17:16:04.417Z,1.43
2023-01-08T17:18:32.211Z,1.50
2023-01-08T17:21:00.025Z,1.33
2023-01-08T17:23:28.914Z,1.60
2023-01-08T17:25:57.051Z,1.17
2023-01-08T17:28:28.376Z,1.10
2023-01-08T17:31:02.797Z,1.70
2023-01-08T17:33:30.800Z,1.20
2023-01-08T17:35:58.933Z,1.20
2023-01-08T17:38:26.739Z,1.00
2023-01-08T17:40:54.723Z,1.67
2023-01-08T17:43:22.583Z,2.07
2023-01-08T17:45:51.791Z,2.40
2023-01-08T17:48:19.632Z,1.53
2023-01-08T17:50:47.358Z,1.20
2023-01-08T17:53:15.335Z,1.53
2023-01-08T17:55:43.180Z,1.57
2023-01-08T17:58:10.951Z,1.67
2023-01-08T18:00:38.850Z,2.37
2023-01-08T18:03:08.026Z,1.33
2023-01-08T18:05:35.824Z,1.70
2023-01-08T18:08:03.722Z,1.03
2023-01-08T18:10:31.754Z,1.10
2023-01-08T18:12:59.505Z,1.20
2023-01-08T18:15:27.265Z,1.20
2023-01-08T18:17:55.043Z,1.43
2023-01-08T18:20:24.181Z,1.73
2023-01-08T18:22:53.580Z,1.23
2023-01-08T18:25:21.604Z,1.33
2023-01-08T18:27:49.428Z,1.30
2023-01-08T18:30:17.750Z,1.57
2023-01-08T18:32:45.498Z,1.30
2023-01-08T18:35:15.148Z,1.37
2023-01-08T18:37:44.392Z,1.57
2023-01-08T18:40:13.103Z,1.60
2023-01-08T18:42:40.850Z,2.20
2023-01-08T18:45:10.929Z,2.60
2023-01-08T18:47:39.200Z,1.63
2023-01-08T18:50:08.509Z,3.07
2023-01-08T18:52:36.622Z,2.30
2023-01-08T18:55:06.429Z,1.50
2023-01-08T18:57:34.195Z,2.20
2023-01-08T19:00:03.512Z,1.83
2023-01-08T19:02:33.558Z,2.10
2023-01-08T19:05:01.819Z,2.53
2023-01-08T19:07:30.055Z,2.83
2023-01-08T19:09:57.904Z,1.80
2023-01-08T19:12:27.948Z,1.80
2023-01-08T19:14:56.140Z,1.70
2023-01-08T19:17:23.928Z,1.67
2023-01-08T19:19:51.698Z,1.57
2023-01-08T19:22:22.440Z,2.03
2023-01-08T19:24:50.159Z,1.87
2023-01-08T19:27:17.865Z,1.57
2023-01-08T19:29:47.065Z,2.20
2023-01-08T19:32:14.833Z,1.90
2023-01-08T19:34:42.690Z,1.83
2023-01-08T19:37:11.604Z,2.67
2023-01-08T19:39:39.682Z,1.67
2023-01-08T19:42:24.917Z,2.03
2023-01-08T19:44:53.956Z,1.70
2023-01-08T19:47:21.631Z,1.70
2023-01-08T19:49:49.717Z,1.87
2023-01-08T19:52:18.159Z,2.00
2023-01-08T19:54:46.296Z,2.13
2023-01-08T19:57:14.207Z,2.00
2023-01-08T19:59:42.395Z,1.93
2023-01-08T20:02:13.527Z,1.90
2023-01-08T20:04:43.245Z,2.47
2023-01-08T20:07:11.139Z,1.97
2023-01-08T20:09:39.191Z,1.97
2023-01-08T20:12:07.601Z,1.40
2023-01-08T20:14:35.547Z,1.30
2023-01-08T20:17:03.344Z,1.53
2023-01-08T20:19:32.725Z,1.50
2023-01-08T20:22:00.712Z,1.43
2023-01-08T20:24:29.458Z,1.70
2023-01-08T20:26:57.280Z,1.37
2023-01-08T20:29:26.201Z,1.80
2023-01-08T20:31:57.430Z,1.47
2023-01-08T20:34:25.789Z,1.97
2023-01-08T20:36:56.410Z,1.60
2023-01-08T20:39:24.284Z,1.90
2023-01-08T20:42:00.826Z,1.80
2023-01-08T20:44:31.579Z,1.70
2023-01-08T20:46:59.411Z,1.53
2023-01-08T20:49:27.701Z,1.37
2023-01-08T20:51:59.833Z,1.20
2023-01-08T20:54:29.337Z,1.10
2023-01-08T20:56:58.361Z,1.00
2023-01-08T20:59:27.179Z,0.90
2023-01-08T21:01:55.193Z,1.33
2023-01-08T21:04:24.315Z,0.80
2023-01-08T21:06:52.230Z,1.00
2023-01-08T21:09:21.515Z,0.93
2023-01-08T21:11:49.226Z,1.00
2023-01-08T21:14:16.947Z,0.97
2023-01-08T21:16:44.885Z,1.03
2023-01-08T21:19:15.265Z,0.90
2023-01-08T21:21:43.386Z,0.97
2023-01-08T21:24:13.152Z,0.70
2023-01-08T21:26:42.226Z,0.83
2023-01-08T21:29:11.631Z,1.03
2023-01-08T21:31:40.672Z,0.90
2023-01-08T21:34:09.465Z,1.10
2023-01-08T21:36:39.020Z,0.73
2023-01-08T21:39:07.222Z,1.33
2023-01-08T21:41:52.681Z,1.07
2023-01-08T21:44:41.178Z,0.90
2023-01-08T21:47:11.145Z,1.20
2023-01-08T21:49:39.571Z,0.90
2023-01-08T21:52:25.035Z,0.70
2023-01-08T21:54:53.699Z,0.70
2023-01-08T21:57:21.650Z,0.70
2023-01-08T21:59:51.872Z,0.60
2023-01-08T22:02:21.599Z,0.40
2023-01-08T22:04:49.410Z,0.83
2023-01-08T22:07:17.668Z,0.33
2023-01-08T22:09:45.494Z,0.70
2023-01-08T22:12:14.043Z,0.50
2023-01-08T22:14:41.803Z,0.67
2023-01-08T22:17:11.093Z,0.50
2023-01-08T22:19:39.921Z,0.57
2023-01-08T22:22:10.656Z,0.53
2023-01-08T22:24:39.120Z,0.60
2023-01-08T22:27:07.901Z,0.50
2023-01-08T22:29:36.284Z,0.53
2023-01-08T22:32:04.336Z,0.40
2023-01-08T22:34:34.338Z,0.40
2023-01-08T22:37:02.322Z,0.50
2023-01-08T22:39:30.145Z,0.70
2023-01-08T22:41:58.145Z,0.60
2023-01-08T22:44:26.112Z,0.30
2023-01-08T22:46:53.854Z,0.70
2023-01-08T22:49:21.626Z,0.50
2023-01-08T22:51:50.893Z,0.70
2023-01-08T22:54:18.774Z,0.33
2023-01-08T22:56:46.539Z,0.53
2023-01-08T22:59:14.315Z,0.60
2023-01-08T23:01:42.077Z,0.50
2023-01-08T23:04:10.434Z,0.50
2023-01-08T23:06:38.309Z,0.50
2023-01-08T23:09:07.744Z,0.60
2023-01-08T23:11:35.534Z,0.40
2023-01-08T23:14:03.215Z,0.50
2023-01-08T23:16:31.379Z,0.60
2023-01-08T23:18:59.185Z,0.40
2023-01-08T23:21:28.498Z,0.50
2023-01-08T23:23:56.262Z,0.57
2023-01-08T23:26:28.749Z,0.50
2023-01-08T23:28:58.299Z,0.50
2023-01-08T23:31:28.082Z,0.67
2023-01-08T23:33:56.286Z,0.50
2023-01-08T23:36:24.637Z,0.87
2023-01-08T23:38:54.055Z,0.43
2023-01-08T23:41:25.905Z,0.43
2023-01-08T23:43:55.121Z,0.60
2023-01-08T23:46:22.935Z,0.50
2023-01-08T23:48:51.941Z,0.57
2023-01-08T23:51:19.708Z,0.60
2023-01-08T23:53:47.668Z,0.63
2023-01-08T23:56:15.477Z,0.80
2023-01-08T23:58:45.157Z,0.50
